createdAt,value
2017-12-02T00:00:38.912Z,2.42
2017-12-02T00:01:47.720Z,2.49
2017-12-02T00:02:56.789Z,2.41
2017-12-02T00:04:05.859Z,2.38
2017-12-02T00:05:14.387Z,2.38
2017-12-02T00:06:22.925Z,2.42
2017-12-02T00:07:31.458Z,2.38
2017-12-02T00:08:39.996Z,2.38
2017-12-02T00:09:49.109Z,2.44
2017-12-02T00:10:57.910Z,2.42
2017-12-02T00:12:06.717Z,2.41
2017-12-02T00:13:15.250Z,2.33
2017-12-02T00:14:24.052Z,2.4
2017-12-02T00:15:32.857Z,2.4
2017-12-02T00:16:41.658Z,2.38
2017-12-02T00:17:50.194Z,2.4
2017-12-02T00:18:58.993Z,2.4
2017-12-02T00:20:07.796Z,2.42
2017-12-02T00:21:16.332Z,2.38
2017-12-02T00:22:24.865Z,2.38
2017-12-02T00:23:34.206Z,2.34
2017-12-02T00:24:43.006Z,2.3
2017-12-02T00:25:51.808Z,2.34
2017-12-02T00:27:00.615Z,2.36
2017-12-02T00:28:09.152Z,2.24
2017-12-02T00:29:17.684Z,2.27
2017-12-02T00:30:26.484Z,2.36
2017-12-02T00:31:35.018Z,2.31
2017-12-02T00:32:43.822Z,2.33
2017-12-02T00:33:52.357Z,2.3
2017-12-02T00:35:01.161Z,2.36
2017-12-02T00:36:09.962Z,2.31
2017-12-02T00:37:18.772Z,2.36
2017-12-02T00:38:27.834Z,2.36
2017-12-02T00:39:36.908Z,2.31
2017-12-02T00:40:45.437Z,2.29
2017-12-02T00:41:54.506Z,2.31
2017-12-02T00:43:03.315Z,2.22
2017-12-02T00:44:11.849Z,2.26
2017-12-02T00:45:20.918Z,2.18
2017-12-02T00:46:29.717Z,2.22
2017-12-02T00:47:38.787Z,2.26
2017-12-02T00:48:47.319Z,2.18
2017-12-02T00:49:55.855Z,2.2
2017-12-02T00:51:04.388Z,2.22
2017-12-02T00:52:12.922Z,2.26
2017-12-02T00:53:22.173Z,2.15
2017-12-02T00:54:30.704Z,2.18
2017-12-02T00:55:39.503Z,2.22
2017-12-02T00:56:48.040Z,2.06
2017-12-02T00:57:56.572Z,2.08
2017-12-02T00:59:05.378Z,2.11
2017-12-02T01:00:13.911Z,1.94
2017-12-02T01:01:22.713Z,1.93
2017-12-02T01:02:31.516Z,1.92
2017-12-02T01:03:40.324Z,1.94
2017-12-02T01:04:49.125Z,1.92
2017-12-02T01:05:57.659Z,1.94
2017-12-02T01:07:06.729Z,2.08
2017-12-02T01:08:15.277Z,2.01
2017-12-02T01:09:24.130Z,1.89
2017-12-02T01:10:32.970Z,2.06
2017-12-02T01:11:41.467Z,2.04
2017-12-02T01:12:49.999Z,2.08
2017-12-02T01:13:59.073Z,1.94
2017-12-02T01:15:07.878Z,2.04
2017-12-02T01:16:16.423Z,1.9
2017-12-02T01:17:24.959Z,1.97
2017-12-02T01:18:33.765Z,1.97
2017-12-02T01:19:42.563Z,2.05
2017-12-02T01:20:51.366Z,2.06
2017-12-02T01:21:59.899Z,2.05
2017-12-02T01:23:08.702Z,2.08
2017-12-02T01:24:17.767Z,2.06
2017-12-02T01:25:26.835Z,2.09
2017-12-02T01:26:35.634Z,2.2
2017-12-02T01:27:44.169Z,2.15
2017-12-02T01:28:52.974Z,2.16
2017-12-02T01:30:02.040Z,2.08
2017-12-02T01:31:10.574Z,2.08
2017-12-02T01:32:19.843Z,2.09
2017-12-02T01:33:28.978Z,2.15
2017-12-02T01:34:37.553Z,2.15
2017-12-02T01:35:46.116Z,2.12
2017-12-02T01:36:55.154Z,2.05
2017-12-02T01:38:03.954Z,2.06
2017-12-02T01:39:12.490Z,1.97
2017-12-02T01:40:21.294Z,2.02
2017-12-02T01:41:29.828Z,1.9
2017-12-02T01:42:38.633Z,2.05
2017-12-02T01:43:47.702Z,1.94
2017-12-02T01:44:56.768Z,1.93
2017-12-02T01:46:05.310Z,2.04
2017-12-02T01:47:14.377Z,1.92
2017-12-02T01:48:22.916Z,1.9
2017-12-02T01:49:32.312Z,2.02
2017-12-02T01:50:41.116Z,1.94
2017-12-02T01:51:50.184Z,1.97
2017-12-02T01:52:58.712Z,1.97
2017-12-02T01:54:07.511Z,1.9
2017-12-02T01:55:16.314Z,1.92
2017-12-02T01:56:25.120Z,1.93
2017-12-02T01:57:34.192Z,1.9
2017-12-02T01:58:42.995Z,1.92
2017-12-02T01:59:51.531Z,1.79
2017-12-02T02:01:00.069Z,1.82
2017-12-02T02:02:09.140Z,1.84
2017-12-02T02:03:17.949Z,1.84
2017-12-02T02:04:26.752Z,1.82
2017-12-02T02:05:35.590Z,1.82
2017-12-02T02:06:44.355Z,1.82
2017-12-02T02:07:53.157Z,1.94
2017-12-02T02:09:01.957Z,1.98
2017-12-02T02:10:10.489Z,1.94
2017-12-02T02:11:19.302Z,1.98
2017-12-02T02:12:28.109Z,2.02
2017-12-02T02:13:37.185Z,1.97
2017-12-02T02:14:45.986Z,2.02
2017-12-02T02:15:54.524Z,2.04
2017-12-02T02:17:03.321Z,2.05
2017-12-02T02:18:11.856Z,2.08
2017-12-02T02:19:20.659Z,1.94
2017-12-02T02:20:29.993Z,2.01
2017-12-02T02:21:38.800Z,1.92
2017-12-02T02:22:47.867Z,1.92
2017-12-02T02:23:56.406Z,1.93
2017-12-02T02:25:05.211Z,1.92
2017-12-02T02:26:14.022Z,1.92
2017-12-02T02:27:23.091Z,1.89
2017-12-02T02:28:31.622Z,1.94
2017-12-02T02:29:40.687Z,2.02
2017-12-02T02:30:49.757Z,2.06
2017-12-02T02:31:58.562Z,2.04
2017-12-02T02:33:07.099Z,1.9
2017-12-02T02:34:15.903Z,2.06
2017-12-02T02:35:24.439Z,1.9
2017-12-02T02:36:33.242Z,2.09
2017-12-02T02:37:42.049Z,1.97
2017-12-02T02:38:50.860Z,1.93
2017-12-02T02:39:59.393Z,2.04
2017-12-02T02:41:08.194Z,1.98
2017-12-02T02:42:16.992Z,1.98
2017-12-02T02:43:25.526Z,2.01
2017-12-02T02:44:34.339Z,1.97
2017-12-02T02:45:42.875Z,1.97
2017-12-02T02:46:51.409Z,1.93
2017-12-02T02:48:00.210Z,2.02
2017-12-02T02:49:09.552Z,1.94
2017-12-02T02:50:18.085Z,2.11
2017-12-02T02:51:26.893Z,2.12
2017-12-02T02:52:35.426Z,2.06
2017-12-02T02:53:43.959Z,2.08
2017-12-02T02:54:52.761Z,2.06
2017-12-02T02:56:01.568Z,2.06
2017-12-02T02:57:10.368Z,2.04
2017-12-02T02:58:19.171Z,2.16
2017-12-02T02:59:27.703Z,2.09
2017-12-02T03:00:36.779Z,2.08
2017-12-02T03:01:45.313Z,2.01
2017-12-02T03:02:54.116Z,1.93
2017-12-02T03:04:02.921Z,1.98
2017-12-02T03:05:11.721Z,1.97
2017-12-02T03:06:20.524Z,1.98
2017-12-02T03:07:29.326Z,1.92
2017-12-02T03:08:38.126Z,2.05
2017-12-02T03:09:47.189Z,2.05
2017-12-02T03:10:55.720Z,1.92
2017-12-02T03:12:04.589Z,1.9
2017-12-02T03:13:13.134Z,2.04
2017-12-02T03:14:21.935Z,1.94
2017-12-02T03:15:30.470Z,1.9
2017-12-02T03:16:39.270Z,1.89
2017-12-02T03:17:47.805Z,1.93
2017-12-02T03:18:56.606Z,1.92
2017-12-02T03:20:05.941Z,1.93
2017-12-02T03:21:14.743Z,1.9
2017-12-02T03:22:23.281Z,1.98
2017-12-02T03:23:32.351Z,1.97
2017-12-02T03:24:42.084Z,1.87
2017-12-02T03:25:51.154Z,1.82
2017-12-02T03:26:59.690Z,1.86
2017-12-02T03:28:08.761Z,1.83
2017-12-02T03:29:17.560Z,1.79
2017-12-02T03:30:26.368Z,1.89
2017-12-02T03:31:35.184Z,1.79
2017-12-02T03:32:44.260Z,1.83
2017-12-02T03:33:53.060Z,1.79
2017-12-02T03:35:01.593Z,1.83
2017-12-02T03:36:10.130Z,1.86
2017-12-02T03:37:19.206Z,1.87
2017-12-02T03:38:27.740Z,1.83
2017-12-02T03:39:36.273Z,1.87
2017-12-02T03:40:45.073Z,1.87
2017-12-02T03:41:53.610Z,1.83
2017-12-02T03:43:02.681Z,1.83
2017-12-02T03:44:11.482Z,1.78
2017-12-02T03:45:20.284Z,1.82
2017-12-02T03:46:29.356Z,1.83
2017-12-02T03:47:38.153Z,1.83
2017-12-02T03:48:47.221Z,1.84
2017-12-02T03:49:56.028Z,1.71
2017-12-02T03:51:05.104Z,1.71
2017-12-02T03:52:13.908Z,1.75
2017-12-02T03:53:22.985Z,1.74
2017-12-02T03:54:31.515Z,1.72
2017-12-02T03:55:40.311Z,1.66
2017-12-02T03:56:48.844Z,1.6
2017-12-02T03:57:57.649Z,1.64
2017-12-02T03:59:06.452Z,1.65
2017-12-02T04:00:15.521Z,1.66
2017-12-02T04:01:24.329Z,1.64
2017-12-02T04:02:32.856Z,1.65
2017-12-02T04:03:41.390Z,1.61
2017-12-02T04:04:50.200Z,1.68
2017-12-02T04:05:59.045Z,1.65
2017-12-02T04:07:08.122Z,1.65
2017-12-02T04:08:17.191Z,1.58
2017-12-02T04:09:25.997Z,1.61
2017-12-02T04:10:35.066Z,1.64
2017-12-02T04:11:43.866Z,1.72
2017-12-02T04:12:52.398Z,1.6
2017-12-02T04:14:00.936Z,1.66
2017-12-02T04:15:10.282Z,1.57
2017-12-02T04:16:19.352Z,1.64
2017-12-02T04:17:27.882Z,1.57
2017-12-02T04:18:36.422Z,1.58
2017-12-02T04:19:44.950Z,1.57
2017-12-02T04:20:53.484Z,1.53
2017-12-02T04:22:02.550Z,1.54
2017-12-02T04:23:11.349Z,1.58
2017-12-02T04:24:20.148Z,1.51
2017-12-02T04:25:29.222Z,1.58
2017-12-02T04:26:38.378Z,1.48
2017-12-02T04:27:47.178Z,1.46
2017-12-02T04:28:55.983Z,1.47
2017-12-02T04:30:04.783Z,1.48
2017-12-02T04:31:13.317Z,1.44
2017-12-02T04:32:21.850Z,1.48
2017-12-02T04:33:30.650Z,1.48
2017-12-02T04:34:39.753Z,1.48
2017-12-02T04:35:48.285Z,1.48
2017-12-02T04:36:56.816Z,1.48
2017-12-02T04:38:05.615Z,1.42
2017-12-02T04:39:14.681Z,1.47
2017-12-02T04:40:23.482Z,1.42
2017-12-02T04:41:32.550Z,1.44
2017-12-02T04:42:41.352Z,1.46
2017-12-02T04:43:50.149Z,1.44
2017-12-02T04:44:58.958Z,1.48
2017-12-02T04:46:08.031Z,1.39
2017-12-02T04:47:17.095Z,1.38
2017-12-02T04:48:25.630Z,1.4
2017-12-02T04:49:34.963Z,1.44
2017-12-02T04:50:43.498Z,1.32
2017-12-02T04:51:52.572Z,1.39
2017-12-02T04:53:01.377Z,1.44
2017-12-02T04:54:10.177Z,1.44
2017-12-02T04:55:19.251Z,1.4
2017-12-02T04:56:28.320Z,1.4
2017-12-02T04:57:37.117Z,1.39
2017-12-02T04:58:45.651Z,1.46
2017-12-02T04:59:54.455Z,1.39
2017-12-02T05:01:03.262Z,1.38
2017-12-02T05:02:12.329Z,1.35
2017-12-02T05:03:21.395Z,1.32
2017-12-02T05:04:30.464Z,1.21
2017-12-02T05:05:39.269Z,1.17
2017-12-02T05:06:48.068Z,1.14
2017-12-02T05:07:57.145Z,1.14
2017-12-02T05:09:06.211Z,1.15
2017-12-02T05:10:14.756Z,1.2
2017-12-02T05:11:23.557Z,1.21
2017-12-02T05:12:32.364Z,1.32
2017-12-02T05:13:41.161Z,1.29
2017-12-02T05:14:50.230Z,1.26
2017-12-02T05:15:59.036Z,1.35
2017-12-02T05:17:07.570Z,1.3
2017-12-02T05:18:16.373Z,1.38
2017-12-02T05:19:25.174Z,1.33
2017-12-02T05:20:33.707Z,1.29
2017-12-02T05:21:42.509Z,1.36
2017-12-02T05:22:51.045Z,1.33
2017-12-02T05:23:59.580Z,1.33
2017-12-02T05:25:08.650Z,1.35
2017-12-02T05:26:17.449Z,1.33
2017-12-02T05:27:25.982Z,1.28
2017-12-02T05:28:34.518Z,1.39
2017-12-02T05:29:43.345Z,1.26
2017-12-02T05:30:52.138Z,1.26
2017-12-02T05:32:01.206Z,1.33
2017-12-02T05:33:10.005Z,1.28
2017-12-02T05:34:18.815Z,1.35
2017-12-02T05:35:27.348Z,1.32
2017-12-02T05:36:35.883Z,1.33
2017-12-02T05:37:44.685Z,1.28
2017-12-02T05:38:53.217Z,1.3
2017-12-02T05:40:02.286Z,1.26
2017-12-02T05:41:11.089Z,1.26
2017-12-02T05:42:20.435Z,1.26
2017-12-02T05:43:29.777Z,1.2
2017-12-02T05:44:38.314Z,1.24
2017-12-02T05:45:46.849Z,1.2
2017-12-02T05:46:55.651Z,1.24
2017-12-02T05:48:04.452Z,1.28
2017-12-02T05:49:13.254Z,1.2
2017-12-02T05:50:22.054Z,1.2
2017-12-02T05:51:31.118Z,1.1
2017-12-02T05:52:40.188Z,1.17
2017-12-02T05:53:49.259Z,1.24
2017-12-02T05:54:58.059Z,1.21
2017-12-02T05:56:06.591Z,1.21
2017-12-02T05:57:15.124Z,1.18
2017-12-02T05:58:23.658Z,1.18
2017-12-02T05:59:32.193Z,1.1
2017-12-02T06:00:41.266Z,1.08
2017-12-02T06:01:50.330Z,1.1
2017-12-02T06:02:58.860Z,1.08
2017-12-02T06:04:07.656Z,1.1
2017-12-02T06:05:16.454Z,1.12
2017-12-02T06:06:25.519Z,1.11
2017-12-02T06:07:34.049Z,1.04
2017-12-02T06:08:42.581Z,1.07
2017-12-02T06:09:51.381Z,1.04
2017-12-02T06:11:00.183Z,1.08
2017-12-02T06:12:08.984Z,1.07
2017-12-02T06:13:17.784Z,1.11
2017-12-02T06:14:26.317Z,1.08
2017-12-02T06:15:35.116Z,1.1
2017-12-02T06:16:44.452Z,1.12
2017-12-02T06:17:52.987Z,1.08
2017-12-02T06:19:01.790Z,1.02
2017-12-02T06:20:10.862Z,1.11
2017-12-02T06:21:19.402Z,1.07
2017-12-02T06:22:28.733Z,1.12
2017-12-02T06:23:37.757Z,1.11
2017-12-02T06:24:46.649Z,1.02
2017-12-02T06:25:56.151Z,1.03
2017-12-02T06:27:04.950Z,1.03
2017-12-02T06:28:13.758Z,1.02
2017-12-02T06:29:22.557Z,1
2017-12-02T06:30:31.090Z,0.96
2017-12-02T06:31:39.889Z,1.03
2017-12-02T06:32:48.570Z,0.99
2017-12-02T06:33:57.100Z,0.99
2017-12-02T06:35:05.634Z,1.04
2017-12-02T06:36:14.169Z,0.99
2017-12-02T06:37:23.239Z,0.96
2017-12-02T06:38:32.573Z,0.96
2017-12-02T06:39:41.378Z,1.07
2017-12-02T06:40:50.446Z,1
2017-12-02T06:41:58.977Z,1.03
2017-12-02T06:43:07.510Z,1.04
2017-12-02T06:44:16.045Z,1.04
2017-12-02T06:45:24.844Z,1
2017-12-02T06:46:33.376Z,1.03
2017-12-02T06:47:42.174Z,0.96
2017-12-02T06:48:50.975Z,1.04
2017-12-02T06:50:00.066Z,1
2017-12-02T06:51:09.135Z,1.02
2017-12-02T06:52:17.942Z,1
2017-12-02T06:53:26.473Z,0.96
2017-12-02T06:54:35.277Z,0.9
2017-12-02T06:55:44.076Z,0.9
2017-12-02T06:56:52.876Z,0.93
2017-12-02T06:58:01.677Z,0.89
2017-12-02T06:59:10.477Z,0.89
2017-12-02T07:00:19.007Z,0.85
2017-12-02T07:01:27.810Z,0.84
2017-12-02T07:02:36.610Z,0.84
2017-12-02T07:03:45.144Z,0.81
2017-12-02T07:04:53.680Z,0.86
2017-12-02T07:06:02.212Z,0.89
2017-12-02T07:07:11.285Z,0.9
2017-12-02T07:08:20.091Z,0.9
2017-12-02T07:09:29.159Z,0.94
2017-12-02T07:10:37.960Z,0.86
2017-12-02T07:11:46.495Z,0.82
2017-12-02T07:12:55.297Z,0.86
2017-12-02T07:14:04.099Z,0.89
2017-12-02T07:15:13.173Z,0.9
2017-12-02T07:16:21.702Z,0.89
2017-12-02T07:17:30.232Z,0.9
2017-12-02T07:18:39.030Z,0.92
2017-12-02T07:19:48.112Z,0.9
2017-12-02T07:20:56.913Z,0.89
2017-12-02T07:22:05.446Z,0.86
2017-12-02T07:23:14.249Z,0.86
2017-12-02T07:24:22.780Z,0.92
2017-12-02T07:25:31.866Z,0.92
2017-12-02T07:26:40.652Z,0.89
2017-12-02T07:27:49.452Z,0.89
2017-12-02T07:28:58.266Z,0.92
2017-12-02T07:30:07.066Z,0.93
2017-12-02T07:31:15.598Z,1.03
2017-12-02T07:32:24.667Z,1
2017-12-02T07:33:33.742Z,0.96
2017-12-02T07:34:42.543Z,1.03
2017-12-02T07:35:51.077Z,0.96
2017-12-02T07:36:59.877Z,1.03
2017-12-02T07:38:08.676Z,0.99
2017-12-02T07:39:17.479Z,1
2017-12-02T07:40:26.282Z,1.03
2017-12-02T07:41:34.813Z,1.11
2017-12-02T07:42:43.345Z,1.04
2017-12-02T07:43:52.149Z,1.08
2017-12-02T07:45:00.959Z,1.11
2017-12-02T07:46:09.757Z,1.14
2017-12-02T07:47:18.827Z,1.08
2017-12-02T07:48:27.897Z,1.08
2017-12-02T07:49:36.698Z,1.1
2017-12-02T07:50:45.503Z,1.07
2017-12-02T07:51:54.647Z,1.18
2017-12-02T07:53:05.312Z,1.14
2017-12-02T07:54:14.387Z,1.15
2017-12-02T07:55:22.923Z,1.12
2017-12-02T07:56:32.261Z,1.12
2017-12-02T07:57:41.062Z,1.14
2017-12-02T07:58:50.126Z,1.12
2017-12-02T07:59:58.930Z,1.15
2017-12-02T08:01:07.729Z,1.15
2017-12-02T08:02:17.065Z,1.15
2017-12-02T08:03:25.598Z,1.15
2017-12-02T08:04:34.667Z,1.12
2017-12-02T08:05:43.733Z,1.21
2017-12-02T08:06:52.534Z,1.2
2017-12-02T08:08:01.638Z,1.17
2017-12-02T08:09:10.440Z,1.12
2017-12-02T08:10:19.250Z,1.17
2017-12-02T08:11:28.318Z,1.17
2017-12-02T08:12:36.848Z,1.18
2017-12-02T08:13:45.652Z,1.2
2017-12-02T08:14:54.197Z,1.18
2017-12-02T08:16:02.729Z,1.29
2017-12-02T08:17:11.794Z,1.21
2017-12-02T08:18:20.329Z,1.22
2017-12-02T08:19:29.404Z,1.28
2017-12-02T08:20:37.930Z,1.26
2017-12-02T08:21:46.999Z,1.21
2017-12-02T08:22:55.534Z,1.29
2017-12-02T08:24:04.601Z,1.21
2017-12-02T08:25:13.400Z,1.2
2017-12-02T08:26:21.932Z,1.24
2017-12-02T08:27:30.739Z,1.21
2017-12-02T08:28:40.078Z,1.28
2017-12-02T08:29:48.922Z,1.18
2017-12-02T08:30:57.725Z,1.21
2017-12-02T08:32:06.792Z,1.28
2017-12-02T08:33:15.858Z,1.3
2017-12-02T08:34:24.658Z,1.3
2017-12-02T08:35:33.460Z,1.32
2017-12-02T08:36:41.995Z,1.28
2017-12-02T08:37:51.515Z,1.2
2017-12-02T08:39:00.624Z,1.2
2017-12-02T08:40:09.429Z,1.2
2017-12-02T08:41:18.244Z,1.17
2017-12-02T08:42:27.045Z,1.26
2017-12-02T08:43:35.847Z,1.29
2017-12-02T08:44:44.919Z,1.2
2017-12-02T08:45:53.717Z,1.28
2017-12-02T08:47:02.517Z,1.28
2017-12-02T08:48:11.047Z,1.32
2017-12-02T08:49:19.850Z,1.28
2017-12-02T08:50:28.917Z,1.36
2017-12-02T08:51:37.989Z,1.32
2017-12-02T08:52:46.788Z,1.3
2017-12-02T08:53:55.589Z,1.3
2017-12-02T08:55:04.392Z,1.32
2017-12-02T08:56:13.469Z,1.28
2017-12-02T08:57:22.003Z,1.32
2017-12-02T08:58:30.535Z,1.35
2017-12-02T08:59:39.336Z,1.38
2017-12-02T09:00:48.142Z,1.32
2017-12-02T09:01:56.942Z,1.4
2017-12-02T09:03:06.011Z,1.36
2017-12-02T09:04:14.817Z,1.4
2017-12-02T09:05:23.882Z,1.46
2017-12-02T09:06:32.413Z,1.53
2017-12-02T09:07:41.211Z,1.46
2017-12-02T09:08:50.012Z,1.46
2017-12-02T09:09:58.812Z,1.5
2017-12-02T09:11:07.613Z,1.53
2017-12-02T09:12:16.415Z,1.51
2017-12-02T09:13:25.215Z,1.54
2017-12-02T09:14:34.279Z,1.57
2017-12-02T09:15:42.812Z,1.58
2017-12-02T09:16:51.614Z,1.57
2017-12-02T09:18:00.149Z,1.53
2017-12-02T09:19:08.951Z,1.56
2017-12-02T09:20:17.757Z,1.56
2017-12-02T09:21:26.561Z,1.66
2017-12-02T09:22:35.364Z,1.57
2017-12-02T09:23:44.698Z,1.65
2017-12-02T09:24:54.424Z,1.68
2017-12-02T09:26:03.370Z,1.61
2017-12-02T09:27:11.911Z,1.66
2017-12-02T09:28:20.705Z,1.64
2017-12-02T09:29:29.242Z,1.6
2017-12-02T09:30:38.043Z,1.68
2017-12-02T09:31:46.584Z,1.61
2017-12-02T09:32:55.387Z,1.68
2017-12-02T09:34:04.190Z,1.68
2017-12-02T09:35:12.727Z,1.71
2017-12-02T09:36:21.526Z,1.66
2017-12-02T09:37:31.003Z,1.69
2017-12-02T09:38:39.805Z,1.68
2017-12-02T09:39:48.922Z,1.66
2017-12-02T09:40:57.990Z,1.74
2017-12-02T09:42:06.793Z,1.74
2017-12-02T09:43:15.324Z,1.74
2017-12-02T09:44:24.129Z,1.75
2017-12-02T09:45:32.928Z,1.78
2017-12-02T09:46:41.460Z,1.76
2017-12-02T09:47:50.306Z,1.66
2017-12-02T09:48:59.063Z,1.72
2017-12-02T09:50:07.598Z,1.75
2017-12-02T09:51:16.404Z,1.71
2017-12-02T09:52:25.742Z,1.74
2017-12-02T09:53:34.811Z,1.72
2017-12-02T09:54:43.623Z,1.78
2017-12-02T09:55:52.149Z,1.68
2017-12-02T09:57:02.054Z,1.86
2017-12-02T09:58:11.129Z,1.79
2017-12-02T09:59:20.207Z,1.83
2017-12-02T10:00:28.743Z,1.79
2017-12-02T10:01:37.544Z,1.79
2017-12-02T10:02:46.613Z,1.84
2017-12-02T10:03:55.683Z,1.86
2017-12-02T10:05:04.530Z,1.86
2017-12-02T10:06:13.065Z,1.83
2017-12-02T10:07:21.869Z,1.9
2017-12-02T10:08:30.945Z,1.84
2017-12-02T10:09:39.748Z,1.84
2017-12-02T10:10:48.282Z,1.83
2017-12-02T10:11:56.815Z,1.83
2017-12-02T10:13:05.658Z,1.82
2017-12-02T10:14:14.792Z,1.83
2017-12-02T10:15:23.355Z,1.79
2017-12-02T10:16:32.026Z,1.94
2017-12-02T10:17:41.030Z,1.92
2017-12-02T10:18:49.831Z,1.9
2017-12-02T10:19:58.896Z,1.93
2017-12-02T10:21:07.699Z,1.9
2017-12-02T10:22:16.234Z,1.89
2017-12-02T10:23:24.773Z,2.04
2017-12-02T10:24:33.576Z,2.05
2017-12-02T10:25:42.913Z,2.04
2017-12-02T10:26:51.451Z,1.97
2017-12-02T10:27:59.990Z,2.01
2017-12-02T10:29:08.795Z,1.93
2017-12-02T10:30:17.329Z,1.92
2017-12-02T10:31:26.131Z,1.98
2017-12-02T10:32:35.202Z,1.97
2017-12-02T10:33:44.275Z,2.02
2017-12-02T10:34:53.630Z,2.08
2017-12-02T10:36:02.428Z,2.12
2017-12-02T10:37:11.228Z,2.09
2017-12-02T10:38:20.043Z,2.11
2017-12-02T10:39:28.576Z,2.15
2017-12-02T10:40:37.115Z,2.18
2017-12-02T10:41:45.915Z,2.15
2017-12-02T10:42:54.717Z,2.18
2017-12-02T10:44:03.520Z,2.15
2017-12-02T10:45:12.331Z,2.15
2017-12-02T10:46:21.134Z,2.16
2017-12-02T10:47:29.669Z,2.24
2017-12-02T10:48:38.206Z,2.2
2017-12-02T10:49:47.023Z,2.22
2017-12-02T10:50:56.091Z,2.26
2017-12-02T10:52:04.898Z,2.34
2017-12-02T10:53:13.435Z,2.3
2017-12-02T10:54:22.252Z,2.33
2017-12-02T10:55:31.320Z,2.3
2017-12-02T10:56:40.388Z,2.3
2017-12-02T10:57:49.195Z,2.3
2017-12-02T10:58:58.000Z,2.3
2017-12-02T11:00:06.801Z,2.31
2017-12-02T11:01:15.638Z,2.24
2017-12-02T11:02:24.437Z,2.27
2017-12-02T11:03:33.242Z,2.34
2017-12-02T11:04:42.049Z,2.44
2017-12-02T11:05:50.583Z,2.4
2017-12-02T11:06:59.385Z,2.38
2017-12-02T11:08:08.450Z,2.4
2017-12-02T11:09:17.252Z,2.42
2017-12-02T11:10:26.056Z,2.38
2017-12-02T11:11:34.591Z,2.36
2017-12-02T11:12:43.126Z,2.42
2017-12-02T11:13:52.195Z,2.41
2017-12-02T11:15:00.994Z,2.33
2017-12-02T11:16:09.797Z,2.42
2017-12-02T11:17:18.333Z,2.36
2017-12-02T11:18:27.135Z,2.42
2017-12-02T11:19:35.665Z,2.4
2017-12-02T11:20:44.471Z,2.38
2017-12-02T11:21:53.544Z,2.38
2017-12-02T11:23:02.350Z,2.51
2017-12-02T11:24:10.886Z,2.48
2017-12-02T11:25:19.688Z,2.51
2017-12-02T11:26:28.492Z,2.38
2017-12-02T11:27:37.026Z,2.38
2017-12-02T11:28:45.564Z,2.45
2017-12-02T11:29:54.380Z,2.4
2017-12-02T11:31:03.208Z,2.4
2017-12-02T11:32:11.745Z,2.42
2017-12-02T11:33:20.279Z,2.34
2017-12-02T11:34:29.074Z,2.38
2017-12-02T11:35:37.885Z,2.29
2017-12-02T11:36:46.415Z,2.4
2017-12-02T11:37:55.488Z,2.29
2017-12-02T11:39:04.290Z,2.36
2017-12-02T11:40:13.089Z,2.38
2017-12-02T11:41:21.628Z,2.27
2017-12-02T11:42:30.210Z,2.31
2017-12-02T11:43:38.963Z,2.3
2017-12-02T11:44:47.498Z,2.34
2017-12-02T11:45:56.304Z,2.26
2017-12-02T11:47:04.840Z,2.31
2017-12-02T11:48:13.373Z,2.34
2017-12-02T11:49:22.179Z,2.34
2017-12-02T11:50:30.710Z,2.38
2017-12-02T11:51:39.245Z,2.38
2017-12-02T11:52:48.318Z,2.42
2017-12-02T11:53:57.119Z,2.4
2017-12-02T11:55:05.928Z,2.44
2017-12-02T11:56:14.463Z,2.42
2017-12-02T11:57:23.266Z,2.45
2017-12-02T11:58:32.067Z,2.4
2017-12-02T11:59:40.609Z,2.4
2017-12-02T12:00:49.412Z,2.4
2017-12-02T12:01:58.210Z,2.4
2017-12-02T12:03:07.285Z,2.38
2017-12-02T12:04:16.356Z,2.34
2017-12-02T12:05:25.161Z,2.38
2017-12-02T12:06:34.232Z,2.36
2017-12-02T12:07:42.763Z,2.26
2017-12-02T12:08:51.829Z,2.27
2017-12-02T12:10:00.637Z,2.31
2017-12-02T12:11:09.706Z,2.26
2017-12-02T12:12:18.560Z,2.23
2017-12-02T12:13:27.308Z,2.2
2017-12-02T12:14:36.116Z,2.18
2017-12-02T12:15:45.200Z,2.15
2017-12-02T12:16:54.147Z,2.18
2017-12-02T12:18:02.718Z,2.11
2017-12-02T12:19:11.584Z,2.12
2017-12-02T12:20:20.667Z,2.16
2017-12-02T12:21:29.238Z,2.18
2017-12-02T12:22:38.048Z,2.16
2017-12-02T12:23:46.590Z,2.2
2017-12-02T12:24:55.592Z,2.22
2017-12-02T12:26:04.132Z,2.18
2017-12-02T12:27:13.487Z,2.26
2017-12-02T12:28:22.311Z,2.22
2017-12-02T12:29:31.437Z,2.33
2017-12-02T12:30:40.793Z,2.18
2017-12-02T12:31:49.605Z,2.2
2017-12-02T12:32:58.416Z,2.23
2017-12-02T12:34:07.505Z,2.16
2017-12-02T12:35:16.038Z,2.2
2017-12-02T12:36:24.889Z,2.34
2017-12-02T12:37:33.707Z,2.34
2017-12-02T12:38:42.778Z,2.36
2017-12-02T12:39:51.870Z,2.33
2017-12-02T12:41:00.404Z,2.34
2017-12-02T12:42:08.939Z,2.27
2017-12-02T12:43:17.743Z,2.42
2017-12-02T12:44:26.548Z,2.42
2017-12-02T12:45:35.395Z,2.34
2017-12-02T12:46:44.470Z,2.34
2017-12-02T12:47:53.269Z,2.3
2017-12-02T12:49:02.338Z,2.34
2017-12-02T12:50:10.874Z,2.29
2017-12-02T12:51:19.675Z,2.3
2017-12-02T12:52:28.211Z,2.22
2017-12-02T12:53:37.283Z,2.24
2017-12-02T12:54:46.231Z,2.15
2017-12-02T12:55:54.768Z,2.12
2017-12-02T12:57:03.305Z,2.16
2017-12-02T12:58:12.639Z,2.15
2017-12-02T12:59:21.172Z,2.13
2017-12-02T13:00:29.974Z,2.26
2017-12-02T13:01:39.047Z,2.16
2017-12-02T13:02:47.846Z,2.22
2017-12-02T13:03:56.647Z,2.22
2017-12-02T13:05:05.184Z,2.18
2017-12-02T13:06:15.489Z,2.29
2017-12-02T13:07:24.559Z,2.24
2017-12-02T13:08:33.367Z,2.24
2017-12-02T13:09:42.164Z,2.2
2017-12-02T13:10:51.232Z,2.2
2017-12-02T13:12:00.571Z,2.22
2017-12-02T13:13:09.912Z,2.22
2017-12-02T13:14:18.712Z,2.24
2017-12-02T13:15:27.513Z,2.22
2017-12-02T13:16:36.050Z,2.23
2017-12-02T13:17:45.397Z,2.2
2017-12-02T13:18:54.201Z,2.16
2017-12-02T13:20:03.538Z,2.22
2017-12-02T13:21:12.337Z,2.27
2017-12-02T13:22:20.879Z,2.23
2017-12-02T13:23:29.407Z,2.16
2017-12-02T13:24:38.214Z,2.27
2017-12-02T13:25:47.368Z,2.26
2017-12-02T13:26:56.169Z,2.26
2017-12-02T13:28:05.234Z,2.26
2017-12-02T13:29:14.307Z,2.26
2017-12-02T13:30:23.376Z,2.29
2017-12-02T13:31:31.911Z,2.26
2017-12-02T13:32:40.445Z,2.29
2017-12-02T13:33:49.512Z,2.27
2017-12-02T13:34:58.047Z,2.24
2017-12-02T13:36:06.848Z,2.24
2017-12-02T13:37:15.384Z,2.22
2017-12-02T13:38:23.927Z,2.16
2017-12-02T13:39:32.461Z,2.22
2017-12-02T13:40:41.269Z,2.2
2017-12-02T13:41:50.072Z,2.16
2017-12-02T13:42:58.881Z,2.13
2017-12-02T13:44:07.421Z,2.26
2017-12-02T13:45:16.486Z,2.26
2017-12-02T13:46:25.289Z,2.16
2017-12-02T13:47:34.363Z,2.18
2017-12-02T13:48:43.173Z,2.18
2017-12-02T13:49:51.975Z,2.22
2017-12-02T13:51:01.047Z,2.16
2017-12-02T13:52:09.865Z,2.18
2017-12-02T13:53:18.389Z,2.2
2017-12-02T13:54:27.193Z,2.16
2017-12-02T13:55:36.320Z,2.22
2017-12-02T13:56:45.388Z,2.23
2017-12-02T13:57:54.196Z,2.2
2017-12-02T13:59:03.005Z,2.22
2017-12-02T14:00:11.804Z,2.22
2017-12-02T14:01:20.613Z,2.27
2017-12-02T14:02:29.415Z,2.2
2017-12-02T14:03:38.985Z,2.18
2017-12-02T14:04:48.059Z,2.18
2017-12-02T14:05:56.859Z,2.22
2017-12-02T14:07:05.665Z,2.22
2017-12-02T14:08:14.202Z,2.2
2017-12-02T14:09:23.005Z,2.2
2017-12-02T14:10:32.083Z,2.16
2017-12-02T14:11:40.885Z,2.2
2017-12-02T14:12:49.689Z,2.15
2017-12-02T14:13:58.489Z,2.16
2017-12-02T14:15:07.288Z,2.15
2017-12-02T14:16:15.821Z,2.18
2017-12-02T14:17:24.626Z,2.13
2017-12-02T14:18:33.696Z,2.16
2017-12-02T14:19:42.492Z,2.13
2017-12-02T14:20:51.562Z,2.11
2017-12-02T14:22:00.094Z,2.08
2017-12-02T14:23:08.629Z,2.15
2017-12-02T14:24:17.435Z,2.16
2017-12-02T14:25:25.968Z,2.12
2017-12-02T14:26:35.046Z,2.05
2017-12-02T14:27:43.847Z,2.16
2017-12-02T14:28:52.926Z,2.2
2017-12-02T14:30:01.456Z,2.18
2017-12-02T14:31:10.253Z,2.15
2017-12-02T14:32:19.330Z,2.06
2017-12-02T14:33:28.128Z,2.08
2017-12-02T14:34:36.933Z,2.08
2017-12-02T14:35:46.000Z,2.22
2017-12-02T14:36:55.072Z,2.08
2017-12-02T14:38:03.605Z,2.11
2017-12-02T14:39:12.693Z,2.18
2017-12-02T14:40:21.493Z,2.15
2017-12-02T14:41:30.562Z,2.09
2017-12-02T14:42:39.361Z,2.09
2017-12-02T14:43:48.176Z,2.15
2017-12-02T14:44:57.243Z,2.09
2017-12-02T14:46:05.780Z,2.11
2017-12-02T14:47:14.323Z,2.09
2017-12-02T14:48:23.126Z,2.15
2017-12-02T14:49:31.929Z,2.22
2017-12-02T14:50:40.733Z,2.2
2017-12-02T14:51:49.533Z,2.15
2017-12-02T14:52:58.066Z,2.15
2017-12-02T14:54:06.874Z,2.16
2017-12-02T14:55:15.406Z,2.18
2017-12-02T14:56:24.487Z,2.22
2017-12-02T14:57:33.562Z,2.16
2017-12-02T14:58:42.363Z,2.22
2017-12-02T14:59:51.163Z,2.16
2017-12-02T15:00:59.968Z,2.16
2017-12-02T15:02:08.770Z,2.18
2017-12-02T15:03:17.576Z,2.13
2017-12-02T15:04:26.378Z,2.2
2017-12-02T15:05:34.910Z,2.2
2017-12-02T15:06:43.711Z,2.2
2017-12-02T15:07:52.246Z,2.16
2017-12-02T15:09:01.047Z,2.13
2017-12-02T15:10:09.676Z,2.2
2017-12-02T15:11:18.497Z,2.11
2017-12-02T15:12:27.030Z,2.12
2017-12-02T15:13:36.100Z,2.09
2017-12-02T15:14:44.711Z,2.15
2017-12-02T15:15:53.250Z,2.09
2017-12-02T15:17:02.048Z,2.08
2017-12-02T15:18:11.120Z,2.05
2017-12-02T15:19:19.923Z,2.05
2017-12-02T15:20:28.458Z,1.98